Huvudsida
METAR-TAF:

METAR-TAF

Flygplatser :

Grazzanise, Italien

latitud: 41-03N, longitud: 014-04E, höjd: 9 m

Aktuellt väderrapport

Denna rapport gjordes för 57 minuter sedan, klockan 13:55 UTC
Vind 10 kt från väst
Temperatur 34°C
Fuktighet 50%
Tryck 1018 hPa
Sikt 10 km eller mer
Få moln på en höjd av 1000 ft

METAR: LIRM 261355Z 26010KT 9999 FEW010 34/22 Q1018 RMK FEW VIS MIN 9999 WIND THR06 27008KT BLU

Tid: 16:52 (14:52 UTC)

Väderprognos

Denna rapport gjordes för 52 minuter sedan, klockan 14:00 UTC
Prognos gäller från 26 kl. 15 UTC till 26 kl. 24 UTC
Vind 8 kt från väst
Sikt 10 km eller mer
Få moln på en höjd av 2000 ft
Spridda moln på en höjd av 7000 ft

TAF: LIRM 261400Z 2615/2624 27008KT 9999 FEW020 SCT070

Aktuella väderrapporter och prognoser från 4000 flygplatser (METAR- och TAF-rapporter).

De tillgängliga stationerna syns som gula och röda prickar på kartan.

För musen över prickarna för att se namnen på stationerna.

Klicka sedan för att få väderrapporter och prognoser.

För att ändra kartan: Klicka på de gröna knapparna med ett svart kors på för att zooma in; den gröna knappen med ett streck på för att zooma ut; eller på de gröna pilarna för angränsande kartor.


METAR-TAF: